sensor_id;sensor_type;location;lat;lon;timestamp;temperature;humidity
64961;SHT31;51487;52.266;10.542;2023-05-20T00:00:55;12.21;72.83
64961;SHT31;51487;52.266;10.542;2023-05-20T00:03:21;12.22;72.95
64961;SHT31;51487;52.266;10.542;2023-05-20T00:05:47;12.14;73.20
64961;SHT31;51487;52.266;10.542;2023-05-20T00:08:13;12.14;73.25
64961;SHT31;51487;52.266;10.542;2023-05-20T00:10:39;12.12;73.30
64961;SHT31;51487;52.266;10.542;2023-05-20T00:13:06;12.08;73.47
64961;SHT31;51487;52.266;10.542;2023-05-20T00:15:32;12.08;73.54
64961;SHT31;51487;52.266;10.542;2023-05-20T00:18:00;12.06;73.73
64961;SHT31;51487;52.266;10.542;2023-05-20T00:20:26;12.02;73.99
64961;SHT31;51487;52.266;10.542;2023-05-20T00:22:51;12.04;73.89
64961;SHT31;51487;52.266;10.542;2023-05-20T00:25:17;12.11;73.97
64961;SHT31;51487;52.266;10.542;2023-05-20T00:27:43;12.05;74.25
64961;SHT31;51487;52.266;10.542;2023-05-20T00:30:09;11.99;74.39
64961;SHT31;51487;52.266;10.542;2023-05-20T00:32:35;11.97;74.54
64961;SHT31;51487;52.266;10.542;2023-05-20T00:35:02;11.94;74.66
64961;SHT31;51487;52.266;10.542;2023-05-20T00:37:28;11.92;74.70
64961;SHT31;51487;52.266;10.542;2023-05-20T00:39:53;11.90;74.82
64961;SHT31;51487;52.266;10.542;2023-05-20T00:42:25;11.84;75.13
64961;SHT31;51487;52.266;10.542;2023-05-20T00:44:51;11.80;75.30
64961;SHT31;51487;52.266;10.542;2023-05-20T00:47:20;11.77;75.46
64961;SHT31;51487;52.266;10.542;2023-05-20T00:49:49;11.84;75.13
64961;SHT31;51487;52.266;10.542;2023-05-20T00:52:17;11.71;75.44
64961;SHT31;51487;52.266;10.542;2023-05-20T00:54:44;11.69;75.60
64961;SHT31;51487;52.266;10.542;2023-05-20T00:57:10;11.67;75.65
64961;SHT31;51487;52.266;10.542;2023-05-20T00:59:37;11.77;75.58
64961;SHT31;51487;52.266;10.542;2023-05-20T01:02:04;11.77;75.65
64961;SHT31;51487;52.266;10.542;2023-05-20T01:04:31;11.78;75.50
64961;SHT31;51487;52.266;10.542;2023-05-20T01:07:00;11.80;75.40
64961;SHT31;51487;52.266;10.542;2023-05-20T01:09:27;11.94;75.17
64961;SHT31;51487;52.266;10.542;2023-05-20T01:12:44;11.99;74.90
64961;SHT31;51487;52.266;10.542;2023-05-20T01:14:58;11.92;75.03
64961;SHT31;51487;52.266;10.542;2023-05-20T01:17:30;11.90;75.15
64961;SHT31;51487;52.266;10.542;2023-05-20T01:19:58;11.87;75.35
64961;SHT31;51487;52.266;10.542;2023-05-20T01:22:28;11.88;75.47
64961;SHT31;51487;52.266;10.542;2023-05-20T01:24:55;11.77;75.74
64961;SHT31;51487;52.266;10.542;2023-05-20T01:27:22;11.81;75.68
64961;SHT31;51487;52.266;10.542;2023-05-20T01:29:49;11.88;75.59
64961;SHT31;51487;52.266;10.542;2023-05-20T01:32:37;11.92;75.57
64961;SHT31;51487;52.266;10.542;2023-05-20T01:35:04;11.85;75.56
64961;SHT31;51487;52.266;10.542;2023-05-20T01:37:31;11.87;75.61
64961;SHT31;51487;52.266;10.542;2023-05-20T01:39:59;11.81;75.80
64961;SHT31;51487;52.266;10.542;2023-05-20T01:42:28;11.75;75.81
64961;SHT31;51487;52.266;10.542;2023-05-20T01:44:53;11.75;75.75
64961;SHT31;51487;52.266;10.542;2023-05-20T01:47:19;11.80;75.70
64961;SHT31;51487;52.266;10.542;2023-05-20T01:49:45;11.78;75.78
64961;SHT31;51487;52.266;10.542;2023-05-20T01:52:12;11.84;75.71
64961;SHT31;51487;52.266;10.542;2023-05-20T01:54:37;11.75;75.99
64961;SHT31;51487;52.266;10.542;2023-05-20T01:57:03;11.81;75.90
64961;SHT31;51487;52.266;10.542;2023-05-20T01:59:29;11.81;76.00
64961;SHT31;51487;52.266;10.542;2023-05-20T02:01:54;11.82;76.00
64961;SHT31;51487;52.266;10.542;2023-05-20T02:04:20;11.91;75.99
64961;SHT31;51487;52.266;10.542;2023-05-20T02:06:47;11.90;76.05
64961;SHT31;51487;52.266;10.542;2023-05-20T02:09:13;11.90;76.25
64961;SHT31;51487;52.266;10.542;2023-05-20T02:11:39;11.92;76.14
64961;SHT31;51487;52.266;10.542;2023-05-20T02:14:05;12.02;75.89
64961;SHT31;51487;52.266;10.542;2023-05-20T02:16:30;12.02;76.09
64961;SHT31;51487;52.266;10.542;2023-05-20T02:18:56;12.05;75.94
64961;SHT31;51487;52.266;10.542;2023-05-20T02:21:23;12.06;75.94
64961;SHT31;51487;52.266;10.542;2023-05-20T02:23:50;12.09;75.81
64961;SHT31;51487;52.266;10.542;2023-05-20T02:26:16;12.08;75.86
64961;SHT31;51487;52.266;10.542;2023-05-20T02:28:41;12.09;75.98
64961;SHT31;51487;52.266;10.542;2023-05-20T02:31:11;12.11;76.06
64961;SHT31;51487;52.266;10.542;2023-05-20T02:33:37;12.21;75.81
64961;SHT31;51487;52.266;10.542;2023-05-20T02:36:03;12.18;75.81
64961;SHT31;51487;52.266;10.542;2023-05-20T02:38:29;12.21;75.86
64961;SHT31;51487;52.266;10.542;2023-05-20T02:40:56;12.19;75.76
64961;SHT31;51487;52.266;10.542;2023-05-20T02:43:24;12.21;75.88
64961;SHT31;51487;52.266;10.542;2023-05-20T02:45:49;12.25;75.58
64961;SHT31;51487;52.266;10.542;2023-05-20T02:48:15;12.09;76.11
64961;SHT31;51487;52.266;10.542;2023-05-20T02:50:41;12.08;76.09
64961;SHT31;51487;52.266;10.542;2023-05-20T02:53:06;12.14;76.12
64961;SHT31;51487;52.266;10.542;2023-05-20T02:55:35;12.18;75.93
64961;SHT31;51487;52.266;10.542;2023-05-20T02:58:02;12.18;75.98
64961;SHT31;51487;52.266;10.542;2023-05-20T03:00:28;12.14;76.14
64961;SHT31;51487;52.266;10.542;2023-05-20T03:02:56;12.11;76.36
64961;SHT31;51487;52.266;10.542;2023-05-20T03:05:21;12.12;76.26
64961;SHT31;51487;52.266;10.542;2023-05-20T03:07:47;12.04;76.33
64961;SHT31;51487;52.266;10.542;2023-05-20T03:10:13;12.05;76.39
64961;SHT31;51487;52.266;10.542;2023-05-20T03:12:39;12.05;76.60
64961;SHT31;51487;52.266;10.542;2023-05-20T03:15:05;12.06;76.51
64961;SHT31;51487;52.266;10.542;2023-05-20T03:17:31;11.94;76.91
64961;SHT31;51487;52.266;10.542;2023-05-20T03:19:57;11.92;77.03
64961;SHT31;51487;52.266;10.542;2023-05-20T03:22:22;11.95;77.04
64961;SHT31;51487;52.266;10.542;2023-05-20T03:24:48;11.90;77.16
64961;SHT31;51487;52.266;10.542;2023-05-20T03:27:13;11.95;77.01
64961;SHT31;51487;52.266;10.542;2023-05-20T03:29:39;11.94;76.99
64961;SHT31;51487;52.266;10.542;2023-05-20T03:32:05;11.81;77.45
64961;SHT31;51487;52.266;10.542;2023-05-20T03:34:30;11.84;77.02
64961;SHT31;51487;52.266;10.542;2023-05-20T03:36:56;11.78;77.25
64961;SHT31;51487;52.266;10.542;2023-05-20T03:39:22;11.82;77.28
64961;SHT31;51487;52.266;10.542;2023-05-20T03:41:47;11.82;77.28
64961;SHT31;51487;52.266;10.542;2023-05-20T03:44:13;11.77;77.30
64961;SHT31;51487;52.266;10.542;2023-05-20T03:46:38;11.84;77.02
64961;SHT31;51487;52.266;10.542;2023-05-20T03:49:04;11.80;77.19
64961;SHT31;51487;52.266;10.542;2023-05-20T03:51:30;11.80;77.20
64961;SHT31;51487;52.266;10.542;2023-05-20T03:53:55;11.80;77.12
64961;SHT31;51487;52.266;10.542;2023-05-20T03:56:21;11.80;77.05
64961;SHT31;51487;52.266;10.542;2023-05-20T03:58:47;11.75;77.21
64961;SHT31;51487;52.266;10.542;2023-05-20T04:01:13;11.66;77.48
64961;SHT31;51487;52.266;10.542;2023-05-20T04:03:39;11.70;77.44
64961;SHT31;51487;52.266;10.542;2023-05-20T04:06:06;11.74;77.53
64961;SHT31;51487;52.266;10.542;2023-05-20T04:08:32;11.61;77.44
64961;SHT31;51487;52.266;10.542;2023-05-20T04:11:01;11.57;77.68
64961;SHT31;51487;52.266;10.542;2023-05-20T04:13:27;11.50;77.82
64961;SHT31;51487;52.266;10.542;2023-05-20T04:15:52;11.40;78.03
64961;SHT31;51487;52.266;10.542;2023-05-20T04:18:18;11.36;78.13
64961;SHT31;51487;52.266;10.542;2023-05-20T04:20:45;11.34;78.28
64961;SHT31;51487;52.266;10.542;2023-05-20T04:23:11;11.36;78.19
64961;SHT31;51487;52.266;10.542;2023-05-20T04:25:37;11.34;78.19
64961;SHT31;51487;52.266;10.542;2023-05-20T04:28:03;11.32;78.35
64961;SHT31;51487;52.266;10.542;2023-05-20T04:30:29;11.39;78.15
64961;SHT31;51487;52.266;10.542;2023-05-20T04:32:58;11.44;77.90
64961;SHT31;51487;52.266;10.542;2023-05-20T04:35:26;11.37;77.95
64961;SHT31;51487;52.266;10.542;2023-05-20T04:37:52;11.29;78.31
64961;SHT31;51487;52.266;10.542;2023-05-20T04:40:20;11.30;78.43
64961;SHT31;51487;52.266;10.542;2023-05-20T04:42:46;11.36;78.45
64961;SHT31;51487;52.266;10.542;2023-05-20T04:45:12;11.37;78.47
64961;SHT31;51487;52.266;10.542;2023-05-20T04:47:38;11.34;78.53
64961;SHT31;51487;52.266;10.542;2023-05-20T04:50:09;11.41;78.47
64961;SHT31;51487;52.266;10.542;2023-05-20T04:52:38;11.37;78.75
64961;SHT31;51487;52.266;10.542;2023-05-20T04:55:08;11.36;78.57
64961;SHT31;51487;52.266;10.542;2023-05-20T04:57:35;11.37;78.85
64961;SHT31;51487;52.266;10.542;2023-05-20T05:00:04;11.43;78.64
64961;SHT31;51487;52.266;10.542;2023-05-20T05:02:32;11.40;78.80
64961;SHT31;51487;52.266;10.542;2023-05-20T05:04:58;11.44;78.99
64961;SHT31;51487;52.266;10.542;2023-05-20T05:07:24;11.51;78.93
64961;SHT31;51487;52.266;10.542;2023-05-20T05:09:50;11.46;79.20
64961;SHT31;51487;52.266;10.542;2023-05-20T05:12:15;11.71;78.67
64961;SHT31;51487;52.266;10.542;2023-05-20T05:14:41;11.67;78.70
64961;SHT31;51487;52.266;10.542;2023-05-20T05:17:06;11.74;78.65
64961;SHT31;51487;52.266;10.542;2023-05-20T05:19:32;11.81;78.52
64961;SHT31;51487;52.266;10.542;2023-05-20T05:21:57;11.81;78.38
64961;SHT31;51487;52.266;10.542;2023-05-20T05:24:23;11.94;78.28
64961;SHT31;51487;52.266;10.542;2023-05-20T05:26:53;11.81;78.31
64961;SHT31;51487;52.266;10.542;2023-05-20T05:29:19;11.77;78.68
64961;SHT31;51487;52.266;10.542;2023-05-20T05:31:44;11.82;78.81
64961;SHT31;51487;52.266;10.542;2023-05-20T05:34:10;11.81;78.86
64961;SHT31;51487;52.266;10.542;2023-05-20T05:36:38;11.91;78.63
64961;SHT31;51487;52.266;10.542;2023-05-20T05:39:03;11.91;79.11
64961;SHT31;51487;52.266;10.542;2023-05-20T05:41:29;11.99;78.89
64961;SHT31;51487;52.266;10.542;2023-05-20T05:43:54;12.11;78.62
64961;SHT31;51487;52.266;10.542;2023-05-20T05:46:20;12.11;78.48
64961;SHT31;51487;52.266;10.542;2023-05-20T05:48:46;12.12;78.51
64961;SHT31;51487;52.266;10.542;2023-05-20T05:51:14;12.15;78.52
64961;SHT31;51487;52.266;10.542;2023-05-20T05:53:39;12.28;78.26
64961;SHT31;51487;52.266;10.542;2023-05-20T05:56:05;12.22;78.42
64961;SHT31;51487;52.266;10.542;2023-05-20T05:58:31;12.36;78.18
64961;SHT31;51487;52.266;10.542;2023-05-20T06:01:00;12.39;78.06
64961;SHT31;51487;52.266;10.542;2023-05-20T06:03:26;12.43;77.85
64961;SHT31;51487;52.266;10.542;2023-05-20T06:05:51;12.53;77.84
64961;SHT31;51487;52.266;10.542;2023-05-20T06:08:17;12.64;77.81
64961;SHT31;51487;52.266;10.542;2023-05-20T06:10:48;12.79;77.58
64961;SHT31;51487;52.266;10.542;2023-05-20T06:13:14;12.86;77.42
64961;SHT31;51487;52.266;10.542;2023-05-20T06:15:39;12.79;78.12
64961;SHT31;51487;52.266;10.542;2023-05-20T06:18:05;12.80;78.30
64961;SHT31;51487;52.266;10.542;2023-05-20T06:20:31;12.84;78.44
64961;SHT31;51487;52.266;10.542;2023-05-20T06:22:56;13.07;78.28
64961;SHT31;51487;52.266;10.542;2023-05-20T06:25:22;13.14;78.14
64961;SHT31;51487;52.266;10.542;2023-05-20T06:27:48;13.11;78.26
64961;SHT31;51487;52.266;10.542;2023-05-20T06:30:14;13.28;78.26
64961;SHT31;51487;52.266;10.542;2023-05-20T06:32:39;13.44;78.02
64961;SHT31;51487;52.266;10.542;2023-05-20T06:35:05;13.49;77.74
64961;SHT31;51487;52.266;10.542;2023-05-20T06:37:31;13.56;77.77
64961;SHT31;51487;52.266;10.542;2023-05-20T06:39:56;13.58;77.79
64961;SHT31;51487;52.266;10.542;2023-05-20T06:42:22;13.66;77.48
64961;SHT31;51487;52.266;10.542;2023-05-20T06:44:47;13.83;76.78
64961;SHT31;51487;52.266;10.542;2023-05-20T06:47:15;13.76;76.77
64961;SHT31;51487;52.266;10.542;2023-05-20T06:49:42;13.86;76.71
64961;SHT31;51487;52.266;10.542;2023-05-20T06:52:08;13.96;76.40
64961;SHT31;51487;52.266;10.542;2023-05-20T06:54:33;13.83;76.72
64961;SHT31;51487;52.266;10.542;2023-05-20T06:57:05;13.86;76.89
64961;SHT31;51487;52.266;10.542;2023-05-20T06:59:31;13.90;76.90
64961;SHT31;51487;52.266;10.542;2023-05-20T07:01:56;14.00;76.45
64961;SHT31;51487;52.266;10.542;2023-05-20T07:04:22;14.02;76.32
64961;SHT31;51487;52.266;10.542;2023-05-20T07:06:47;14.09;76.22
64961;SHT31;51487;52.266;10.542;2023-05-20T07:09:13;14.23;75.98
64961;SHT31;51487;52.266;10.542;2023-05-20T07:11:38;14.17;76.00
64961;SHT31;51487;52.266;10.542;2023-05-20T07:14:04;14.23;76.03
64961;SHT31;51487;52.266;10.542;2023-05-20T07:16:29;14.16;76.21
64961;SHT31;51487;52.266;10.542;2023-05-20T07:18:56;14.18;75.94
64961;SHT31;51487;52.266;10.542;2023-05-20T07:21:22;14.18;76.48
64961;SHT31;51487;52.266;10.542;2023-05-20T07:23:47;14.30;76.38
64961;SHT31;51487;52.266;10.542;2023-05-20T07:26:13;14.18;77.08
64961;SHT31;51487;52.266;10.542;2023-05-20T07:28:39;14.18;76.91
64961;SHT31;51487;52.266;10.542;2023-05-20T07:31:04;14.23;76.76
64961;SHT31;51487;52.266;10.542;2023-05-20T07:33:30;14.13;76.90
64961;SHT31;51487;52.266;10.542;2023-05-20T07:35:56;14.28;76.68
64961;SHT31;51487;52.266;10.542;2023-05-20T07:38:21;14.17;76.89
64961;SHT31;51487;52.266;10.542;2023-05-20T07:40:47;14.34;76.40
64961;SHT31;51487;52.266;10.542;2023-05-20T07:43:13;14.34;76.71
64961;SHT31;51487;52.266;10.542;2023-05-20T07:45:38;14.40;76.66
64961;SHT31;51487;52.266;10.542;2023-05-20T07:48:04;14.44;76.84
64961;SHT31;51487;52.266;10.542;2023-05-20T07:50:30;14.44;76.50
64961;SHT31;51487;52.266;10.542;2023-05-20T07:52:56;14.41;76.17
64961;SHT31;51487;52.266;10.542;2023-05-20T07:55:21;14.48;76.12
64961;SHT31;51487;52.266;10.542;2023-05-20T07:57:47;14.41;76.36
64961;SHT31;51487;52.266;10.542;2023-05-20T08:00:13;14.17;77.21
64961;SHT31;51487;52.266;10.542;2023-05-20T08:02:38;14.17;77.47
64961;SHT31;51487;52.266;10.542;2023-05-20T08:05:05;14.28;76.26
64961;SHT31;51487;52.266;10.542;2023-05-20T08:07:30;14.06;76.89
64961;SHT31;51487;52.266;10.542;2023-05-20T08:09:56;14.12;76.81
64961;SHT31;51487;52.266;10.542;2023-05-20T08:12:22;14.41;76.19
64961;SHT31;51487;52.266;10.542;2023-05-20T08:14:47;14.51;75.69
64961;SHT31;51487;52.266;10.542;2023-05-20T08:17:13;14.61;75.33
64961;SHT31;51487;52.266;10.542;2023-05-20T08:19:38;14.68;74.67
64961;SHT31;51487;52.266;10.542;2023-05-20T08:22:04;14.96;74.56
64961;SHT31;51487;52.266;10.542;2023-05-20T08:24:30;15.19;73.79
64961;SHT31;51487;52.266;10.542;2023-05-20T08:26:56;15.24;73.54
64961;SHT31;51487;52.266;10.542;2023-05-20T08:29:22;15.49;73.04
64961;SHT31;51487;52.266;10.542;2023-05-20T08:31:48;15.40;72.96
64961;SHT31;51487;52.266;10.542;2023-05-20T08:34:13;15.57;72.66
64961;SHT31;51487;52.266;10.542;2023-05-20T08:36:38;15.34;72.90
64961;SHT31;51487;52.266;10.542;2023-05-20T08:39:04;15.36;73.24
64961;SHT31;51487;52.266;10.542;2023-05-20T08:41:30;15.57;72.80
64961;SHT31;51487;52.266;10.542;2023-05-20T08:43:58;15.81;71.85
64961;SHT31;51487;52.266;10.542;2023-05-20T08:46:25;15.65;72.40
64961;SHT31;51487;52.266;10.542;2023-05-20T08:48:51;15.68;71.99
64961;SHT31;51487;52.266;10.542;2023-05-20T08:51:20;15.81;72.26
64961;SHT31;51487;52.266;10.542;2023-05-20T08:53:47;15.91;71.70
64961;SHT31;51487;52.266;10.542;2023-05-20T08:56:15;16.00;71.53
64961;SHT31;51487;52.266;10.542;2023-05-20T08:58:42;15.95;71.37
64961;SHT31;51487;52.266;10.542;2023-05-20T09:01:07;16.05;71.66
64961;SHT31;51487;52.266;10.542;2023-05-20T09:03:33;15.98;71.97
64961;SHT31;51487;52.266;10.542;2023-05-20T09:06:08;16.01;71.81
64961;SHT31;51487;52.266;10.542;2023-05-20T09:08:35;16.25;71.61
64961;SHT31;51487;52.266;10.542;2023-05-20T09:11:00;16.49;70.12
64961;SHT31;51487;52.266;10.542;2023-05-20T09:13:30;16.08;71.22
64961;SHT31;51487;52.266;10.542;2023-05-20T09:15:59;16.02;71.21
64961;SHT31;51487;52.266;10.542;2023-05-20T09:18:26;16.13;71.10
64961;SHT31;51487;52.266;10.542;2023-05-20T09:20:52;16.30;70.93
64961;SHT31;51487;52.266;10.542;2023-05-20T09:23:18;16.33;70.80
64961;SHT31;51487;52.266;10.542;2023-05-20T09:25:49;16.04;71.75
64961;SHT31;51487;52.266;10.542;2023-05-20T09:28:22;16.18;71.35
64961;SHT31;51487;52.266;10.542;2023-05-20T09:30:49;16.34;71.20
64961;SHT31;51487;52.266;10.542;2023-05-20T09:33:16;16.34;70.96
64961;SHT31;51487;52.266;10.542;2023-05-20T09:35:42;16.30;71.38
64961;SHT31;51487;52.266;10.542;2023-05-20T09:38:10;16.32;71.52
64961;SHT31;51487;52.266;10.542;2023-05-20T09:40:36;16.48;70.98
64961;SHT31;51487;52.266;10.542;2023-05-20T09:43:06;16.50;70.61
64961;SHT31;51487;52.266;10.542;2023-05-20T09:45:32;16.76;69.84
64961;SHT31;51487;52.266;10.542;2023-05-20T09:48:00;16.85;69.23
64961;SHT31;51487;52.266;10.542;2023-05-20T09:50:27;16.74;70.14
64961;SHT31;51487;52.266;10.542;2023-05-20T09:52:54;16.63;70.16
64961;SHT31;51487;52.266;10.542;2023-05-20T09:55:23;16.57;70.00
64961;SHT31;51487;52.266;10.542;2023-05-20T09:57:49;16.70;69.77
64961;SHT31;51487;52.266;10.542;2023-05-20T10:00:16;16.59;70.39
64961;SHT31;51487;52.266;10.542;2023-05-20T10:02:45;16.46;70.93
64961;SHT31;51487;52.266;10.542;2023-05-20T10:05:20;16.46;70.83
64961;SHT31;51487;52.266;10.542;2023-05-20T10:11:27;16.40;70.29
64961;SHT31;51487;52.266;10.542;2023-05-20T10:17:00;16.57;70.05
64961;SHT31;51487;52.266;10.542;2023-05-20T10:19:32;16.50;70.12
64961;SHT31;51487;52.266;10.542;2023-05-20T10:22:05;16.33;70.73
64961;SHT31;51487;52.266;10.542;2023-05-20T10:24:39;16.25;71.23
64961;SHT31;51487;52.266;10.542;2023-05-20T10:27:10;16.12;71.46
64961;SHT31;51487;52.266;10.542;2023-05-20T10:29:55;16.32;70.48
64961;SHT31;51487;52.266;10.542;2023-05-20T10:32:30;16.43;70.67
64961;SHT31;51487;52.266;10.542;2023-05-20T10:35:08;16.60;70.28
64961;SHT31;51487;52.266;10.542;2023-05-20T10:37:42;16.46;70.18
64961;SHT31;51487;52.266;10.542;2023-05-20T10:40:12;16.61;70.16
64961;SHT31;51487;52.266;10.542;2023-05-20T10:42:39;16.56;70.23
64961;SHT31;51487;52.266;10.542;2023-05-20T10:45:09;16.67;70.30
64961;SHT31;51487;52.266;10.542;2023-05-20T10:47:35;16.46;70.85
64961;SHT31;51487;52.266;10.542;2023-05-20T10:50:02;16.52;70.06
64961;SHT31;51487;52.266;10.542;2023-05-20T10:52:36;16.50;70.66
64961;SHT31;51487;52.266;10.542;2023-05-20T10:55:02;16.61;70.18
64961;SHT31;51487;52.266;10.542;2023-05-20T10:57:29;16.57;70.32
64961;SHT31;51487;52.266;10.542;2023-05-20T10:59:57;16.61;70.44
64961;SHT31;51487;52.266;10.542;2023-05-20T11:02:23;16.91;69.84
64961;SHT31;51487;52.266;10.542;2023-05-20T11:04:55;16.83;70.24
64961;SHT31;51487;52.266;10.542;2023-05-20T11:07:30;17.11;69.53
64961;SHT31;51487;52.266;10.542;2023-05-20T11:09:59;17.07;70.12
64961;SHT31;51487;52.266;10.542;2023-05-20T11:12:26;16.85;70.05
64961;SHT31;51487;52.266;10.542;2023-05-20T11:14:53;16.87;70.26
64961;SHT31;51487;52.266;10.542;2023-05-20T11:17:19;17.10;69.74
64961;SHT31;51487;52.266;10.542;2023-05-20T11:19:46;17.31;69.23
64961;SHT31;51487;52.266;10.542;2023-05-20T11:22:12;17.43;68.58
64961;SHT31;51487;52.266;10.542;2023-05-20T11:24:37;17.43;67.98
64961;SHT31;51487;52.266;10.542;2023-05-20T11:27:03;17.35;68.43
64961;SHT31;51487;52.266;10.542;2023-05-20T11:29:29;17.31;68.89
64961;SHT31;51487;52.266;10.542;2023-05-20T11:31:58;17.17;69.18
64961;SHT31;51487;52.266;10.542;2023-05-20T11:34:24;16.94;69.31
64961;SHT31;51487;52.266;10.542;2023-05-20T11:36:57;17.00;69.57
64961;SHT31;51487;52.266;10.542;2023-05-20T11:39:24;17.21;69.31
64961;SHT31;51487;52.266;10.542;2023-05-20T11:41:51;17.14;69.11
64961;SHT31;51487;52.266;10.542;2023-05-20T11:44:19;17.10;69.36
64961;SHT31;51487;52.266;10.542;2023-05-20T11:46:46;17.38;69.32
64961;SHT31;51487;52.266;10.542;2023-05-20T11:49:14;17.25;69.15
64961;SHT31;51487;52.266;10.542;2023-05-20T11:51:40;17.27;69.38
64961;SHT31;51487;52.266;10.542;2023-05-20T11:54:07;17.24;69.18
64961;SHT31;51487;52.266;10.542;2023-05-20T11:56:37;17.03;69.57
64961;SHT31;51487;52.266;10.542;2023-05-20T11:59:05;16.90;70.08
64961;SHT31;51487;52.266;10.542;2023-05-20T12:01:34;16.80;70.26
64961;SHT31;51487;52.266;10.542;2023-05-20T12:04:04;16.91;70.38
64961;SHT31;51487;52.266;10.542;2023-05-20T12:06:30;16.85;70.21
64961;SHT31;51487;52.266;10.542;2023-05-20T12:08:56;17.19;69.47
64961;SHT31;51487;52.266;10.542;2023-05-20T12:11:21;17.11;69.33
64961;SHT31;51487;52.266;10.542;2023-05-20T12:13:47;17.17;68.89
64961;SHT31;51487;52.266;10.542;2023-05-20T12:16:12;17.25;68.75
64961;SHT31;51487;52.266;10.542;2023-05-20T12:18:38;17.25;68.97
64961;SHT31;51487;52.266;10.542;2023-05-20T12:21:03;17.17;69.57
64961;SHT31;51487;52.266;10.542;2023-05-20T12:23:29;17.24;69.50
64961;SHT31;51487;52.266;10.542;2023-05-20T12:25:59;17.04;70.23
64961;SHT31;51487;52.266;10.542;2023-05-20T12:28:24;17.17;69.89
64961;SHT31;51487;52.266;10.542;2023-05-20T12:30:50;17.14;70.00
64961;SHT31;51487;52.266;10.542;2023-05-20T12:33:16;17.14;69.43
64961;SHT31;51487;52.266;10.542;2023-05-20T12:35:42;17.04;69.55
64961;SHT31;51487;52.266;10.542;2023-05-20T12:38:08;17.00;69.65
64961;SHT31;51487;52.266;10.542;2023-05-20T12:40:36;17.04;69.61
64961;SHT31;51487;52.266;10.542;2023-05-20T12:43:03;17.12;69.74
64961;SHT31;51487;52.266;10.542;2023-05-20T12:45:29;17.01;70.31
64961;SHT31;51487;52.266;10.542;2023-05-20T12:47:56;17.31;69.29
64961;SHT31;51487;52.266;10.542;2023-05-20T12:50:23;17.49;69.34
64961;SHT31;51487;52.266;10.542;2023-05-20T12:52:49;17.68;68.21
64961;SHT31;51487;52.266;10.542;2023-05-20T12:55:14;17.35;69.45
64961;SHT31;51487;52.266;10.542;2023-05-20T12:57:44;17.25;69.74
64961;SHT31;51487;52.266;10.542;2023-05-20T13:00:11;17.22;69.67
64961;SHT31;51487;52.266;10.542;2023-05-20T13:02:40;17.43;68.87
64961;SHT31;51487;52.266;10.542;2023-05-20T13:05:06;17.49;69.09
64961;SHT31;51487;52.266;10.542;2023-05-20T13:07:32;17.58;68.96
64961;SHT31;51487;52.266;10.542;2023-05-20T13:09:59;17.59;68.81
64961;SHT31;51487;52.266;10.542;2023-05-20T13:12:24;17.39;70.02
64961;SHT31;51487;52.266;10.542;2023-05-20T13:14:50;17.66;69.31
64961;SHT31;51487;52.266;10.542;2023-05-20T13:17:17;17.53;69.00
64961;SHT31;51487;52.266;10.542;2023-05-20T13:19:43;17.52;69.38
64961;SHT31;51487;52.266;10.542;2023-05-20T13:22:10;17.68;69.02
64961;SHT31;51487;52.266;10.542;2023-05-20T13:24:36;17.68;69.12
64961;SHT31;51487;52.266;10.542;2023-05-20T13:27:03;17.82;68.92
64961;SHT31;51487;52.266;10.542;2023-05-20T13:29:29;17.80;68.94
64961;SHT31;51487;52.266;10.542;2023-05-20T13:31:55;17.80;69.03
64961;SHT31;51487;52.266;10.542;2023-05-20T13:34:21;17.66;69.12
64961;SHT31;51487;52.266;10.542;2023-05-20T13:36:46;17.83;68.78
64961;SHT31;51487;52.266;10.542;2023-05-20T13:39:14;17.73;68.84
64961;SHT31;51487;52.266;10.542;2023-05-20T13:41:41;17.75;68.85
64961;SHT31;51487;52.266;10.542;2023-05-20T13:44:06;17.90;68.64
64961;SHT31;51487;52.266;10.542;2023-05-20T13:46:33;17.91;68.76
64961;SHT31;51487;52.266;10.542;2023-05-20T13:48:59;18.06;68.41
64961;SHT31;51487;52.266;10.542;2023-05-20T13:51:24;18.01;68.54
64961;SHT31;51487;52.266;10.542;2023-05-20T13:53:50;17.86;68.40
64961;SHT31;51487;52.266;10.542;2023-05-20T13:56:16;17.79;68.86
64961;SHT31;51487;52.266;10.542;2023-05-20T13:58:41;17.61;69.15
64961;SHT31;51487;52.266;10.542;2023-05-20T14:01:07;17.82;69.22
64961;SHT31;51487;52.266;10.542;2023-05-20T14:03:33;17.94;68.56
64961;SHT31;51487;52.266;10.542;2023-05-20T14:06:00;18.10;68.19
64961;SHT31;51487;52.266;10.542;2023-05-20T14:08:26;17.96;68.61
64961;SHT31;51487;52.266;10.542;2023-05-20T14:10:52;18.17;67.91
64961;SHT31;51487;52.266;10.542;2023-05-20T14:13:23;18.18;68.18
64961;SHT31;51487;52.266;10.542;2023-05-20T14:15:49;18.38;67.42
64961;SHT31;51487;52.266;10.542;2023-05-20T14:18:16;18.34;67.74
64961;SHT31;51487;52.266;10.542;2023-05-20T14:20:42;18.40;67.59
64961;SHT31;51487;52.266;10.542;2023-05-20T14:23:08;18.48;67.39
64961;SHT31;51487;52.266;10.542;2023-05-20T14:25:34;18.43;67.56
64961;SHT31;51487;52.266;10.542;2023-05-20T14:27:59;18.20;68.33
64961;SHT31;51487;52.266;10.542;2023-05-20T14:30:25;18.27;68.12
64961;SHT31;51487;52.266;10.542;2023-05-20T14:32:50;18.33;68.17
64961;SHT31;51487;52.266;10.542;2023-05-20T14:35:16;18.33;68.22
64961;SHT31;51487;52.266;10.542;2023-05-20T14:37:43;18.44;67.86
64961;SHT31;51487;52.266;10.542;2023-05-20T14:40:09;18.43;67.58
64961;SHT31;51487;52.266;10.542;2023-05-20T14:42:36;18.49;67.47
64961;SHT31;51487;52.266;10.542;2023-05-20T14:45:02;18.52;67.15
64961;SHT31;51487;52.266;10.542;2023-05-20T14:47:28;18.45;67.73
64961;SHT31;51487;52.266;10.542;2023-05-20T14:49:55;18.27;67.76
64961;SHT31;51487;52.266;10.542;2023-05-20T14:52:20;18.57;67.37
64961;SHT31;51487;52.266;10.542;2023-05-20T14:54:46;18.48;67.26
64961;SHT31;51487;52.266;10.542;2023-05-20T14:57:12;18.61;66.86
64961;SHT31;51487;52.266;10.542;2023-05-20T14:59:37;18.66;66.40
64961;SHT31;51487;52.266;10.542;2023-05-20T15:02:03;18.51;67.06
64961;SHT31;51487;52.266;10.542;2023-05-20T15:04:30;18.45;67.20
64961;SHT31;51487;52.266;10.542;2023-05-20T15:06:56;18.57;67.38
64961;SHT31;51487;52.266;10.542;2023-05-20T15:09:21;18.68;67.58
64961;SHT31;51487;52.266;10.542;2023-05-20T15:11:47;18.76;67.07
64961;SHT31;51487;52.266;10.542;2023-05-20T15:14:13;18.98;67.07
64961;SHT31;51487;52.266;10.542;2023-05-20T15:16:38;18.79;67.33
64961;SHT31;51487;52.266;10.542;2023-05-20T15:19:04;18.72;67.28